Time;durP1;ratioP1;P1;durP2;ratioP2;P2;SDS_P1;SDS_P2;PMS_P1;PMS_P2;Temp;Humidity;BMP_temperature;BMP_pressure;BME280_temperature;BME280_humidity;BME280_pressure;Samples;Min_cycle;Max_cycle;Signal;HPM_P1;HPM_P2
2022/09/03 00:01:58;;;;;;;1.67;0.60;;;;;;;16.87;65.95;100753.75;5210890;28;20028;-77
2022/09/03 00:04:56;;;;;;;1.60;0.70;;;;;;;16.82;66.27;100747.88;5188232;28;20017;-77
2022/09/03 00:07:39;;;;;;;3.17;0.60;;;;;;;16.83;66.34;100745.13;5208304;28;20022;-77
2022/09/03 00:10:24;;;;;;;2.22;0.70;;;;;;;16.78;66.09;100741.09;5211478;28;20075;-77
2022/09/03 00:12:59;;;;;;;2.05;0.68;;;;;;;16.71;66.40;100739.72;5212955;28;20104;-76
2022/09/03 00:15:33;;;;;;;2.47;0.50;;;;;;;16.72;66.63;100746.72;5206704;28;20029;-77
2022/09/03 00:18:11;;;;;;;1.63;0.57;;;;;;;16.63;66.66;100744.63;5203655;28;20040;-78
2022/09/03 00:20:45;;;;;;;1.20;0.60;;;;;;;16.63;66.76;100743.75;5208725;28;20503;-76
2022/09/03 00:23:21;;;;;;;3.25;0.60;;;;;;;16.61;66.71;100740.34;5211770;28;21425;-77
2022/09/03 00:26:16;;;;;;;2.05;0.65;;;;;;;16.59;66.63;100731.69;5191544;28;20036;-77
2022/09/03 00:28:58;;;;;;;1.83;0.63;;;;;;;16.59;67.03;100732.50;5209276;28;20462;-77
2022/09/03 00:31:34;;;;;;;1.55;0.70;;;;;;;16.54;67.36;100733.75;5191136;28;20031;-77
2022/09/03 00:34:15;;;;;;;1.48;0.65;;;;;;;16.65;67.07;100737.47;5199556;28;20388;-77
2022/09/03 00:36:46;;;;;;;2.72;0.80;;;;;;;16.62;66.80;100731.50;5208901;28;20032;-77
2022/09/03 00:39:20;;;;;;;2.55;0.57;;;;;;;16.55;67.32;100730.16;5193840;28;20029;-77
2022/09/03 00:42:18;;;;;;;5.13;0.60;;;;;;;16.52;67.33;100733.81;5191614;28;20057;-77
2022/09/03 00:44:59;;;;;;;1.75;0.60;;;;;;;16.47;67.59;100733.22;5193174;28;20113;-78
2022/09/03 00:47:45;;;;;;;3.90;0.60;;;;;;;16.45;67.63;100727.19;5200636;28;20037;-75
2022/09/03 00:50:28;;;;;;;3.78;0.80;;;;;;;16.39;68.06;100724.88;5206948;28;20052;-77
2022/09/03 00:53:15;;;;;;;2.25;0.60;;;;;;;16.34;68.19;100732.19;5206883;28;20029;-74
2022/09/03 00:56:14;;;;;;;1.42;0.50;;;;;;;16.41;67.99;100724.81;5211559;28;20514;-77
2022/09/03 00:59:00;;;;;;;8.68;1.35;;;;;;;16.32;68.39;100731.44;5191037;28;20076;-77
2022/09/03 01:02:02;;;;;;;1.67;0.60;;;;;;;16.35;68.14;100727.81;5206074;28;20625;-77
2022/09/03 01:05:01;;;;;;;2.03;0.70;;;;;;;16.25;68.33;100722.13;5193588;23;20073;-77
2022/09/03 01:07:52;;;;;;;1.45;0.57;;;;;;;16.20;68.87;100728.63;5203631;28;20061;-76
2022/09/03 01:10:45;;;;;;;1.38;0.60;;;;;;;16.03;69.04;100736.63;5208205;28;20038;-76
2022/09/03 01:13:37;;;;;;;2.03;0.70;;;;;;;16.15;69.03;100730.66;5209029;28;20036;-76
2022/09/03 01:16:20;;;;;;;1.63;0.50;;;;;;;16.07;69.18;100722.34;5206907;28;20052;-76
2022/09/03 01:19:38;;;;;;;1.38;0.60;;;;;;;16.04;69.57;100722.50;5205567;28;20025;-76
2022/09/03 01:22:39;;;;;;;1.67;0.70;;;;;;;16.16;68.93;100732.34;5203493;28;20561;-76
2022/09/03 01:25:35;;;;;;;2.03;0.68;;;;;;;16.01;69.27;100738.50;5207916;28;20045;-76
2022/09/03 01:28:15;;;;;;;2.80;0.68;;;;;;;16.06;69.22;100732.03;5205748;28;20116;-76
2022/09/03 01:31:02;;;;;;;2.08;0.80;;;;;;;15.91;69.41;100732.84;5213524;28;20067;-77
2022/09/03 01:33:45;;;;;;;1.73;0.65;;;;;;;15.84;69.81;100735.94;5193621;28;20130;-76
2022/09/03 01:36:51;;;;;;;0.98;0.50;;;;;;;15.84;70.08;100735.94;5213324;28;20024;-76
2022/09/03 01:39:42;;;;;;;1.27;0.60;;;;;;;15.84;70.01;100734.13;5214413;28;20082;-76
2022/09/03 01:42:36;;;;;;;6.30;0.60;;;;;;;15.78;70.35;100736.25;5211851;28;20090;-76
2022/09/03 01:45:22;;;;;;;9.02;0.70;;;;;;;15.73;71.11;100731.22;5193114;28;20033;-76
2022/09/03 01:48:17;;;;;;;1.75;0.68;;;;;;;15.65;71.44;100737.84;5203718;28;20022;-76
2022/09/03 01:51:02;;;;;;;3.25;0.70;;;;;;;15.32;73.06;100735.22;5204047;28;20494;-76
2022/09/03 01:54:10;;;;;;;3.40;0.88;;;;;;;15.23;74.17;100745.34;5209506;28;20037;-76
2022/09/03 01:56:49;;;;;;;0.93;0.50;;;;;;;15.14;74.17;100749.31;5210469;28;20112;-76
2022/09/03 01:59:27;;;;;;;1.73;0.70;;;;;;;15.01;74.02;100752.66;5211989;28;20033;-76
2022/09/03 02:02:09;;;;;;;3.25;0.77;;;;;;;14.95;75.37;100753.81;5208289;28;20112;-76
2022/09/03 02:04:40;;;;;;;2.35;0.70;;;;;;;14.86;74.92;100745.53;5213595;28;20016;-76
2022/09/03 02:07:11;;;;;;;1.58;0.60;;;;;;;14.78;75.16;100747.66;5212586;28;20072;-77
2022/09/03 02:09:41;;;;;;;1.92;0.70;;;;;;;14.73;76.05;100746.22;5194918;28;20116;-77
2022/09/03 02:12:17;;;;;;;2.15;0.60;;;;;;;14.73;76.46;100749.69;5213570;28;20033;-76
2022/09/03 02:14:47;;;;;;;0.82;0.52;;;;;;;14.67;76.06;100751.78;5212550;28;20029;-76
2022/09/03 02:17:18;;;;;;;2.35;0.52;;;;;;;14.65;76.41;100751.00;5207869;28;20087;-77
2022/09/03 02:19:49;;;;;;;3.78;1.00;;;;;;;14.65;77.00;100748.38;5207726;28;20052;-76
2022/09/03 02:22:19;;;;;;;1.95;0.70;;;;;;;14.70;76.26;100747.22;5196420;28;20040;-76
2022/09/03 02:24:49;;;;;;;1.88;0.80;;;;;;;14.58;76.74;100741.72;5211672;28;20025;-76
2022/09/03 02:27:20;;;;;;;3.30;0.90;;;;;;;14.69;75.82;100747.28;5213350;28;20103;-76
2022/09/03 02:29:50;;;;;;;1.88;0.70;;;;;;;14.69;75.47;100749.91;5210495;28;20447;-76
2022/09/03 02:32:20;;;;;;;2.50;0.65;;;;;;;14.66;76.49;100748.31;5214090;28;20545;-76
2022/09/03 02:34:51;;;;;;;1.38;0.80;;;;;;;14.41;77.78;100746.94;5211492;28;20257;-76
2022/09/03 02:37:22;;;;;;;2.05;0.55;;;;;;;14.44;77.46;100744.16;5213406;28;20036;-76
2022/09/03 02:39:52;;;;;;;1.85;0.70;;;;;;;14.47;77.60;100738.75;5210491;28;20053;-76
2022/09/03 02:42:23;;;;;;;1.90;0.70;;;;;;;14.58;76.16;100745.19;5196296;28;20029;-76
2022/09/03 02:45:02;;;;;;;2.58;0.70;;;;;;;14.45;77.02;100740.59;5210805;28;20017;-76
2022/09/03 02:47:36;;;;;;;2.03;0.60;;;;;;;14.41;77.52;100739.06;5203237;28;20167;-76
2022/09/03 02:50:07;;;;;;;1.25;0.70;;;;;;;14.52;76.34;100739.38;5209075;28;20014;-76
2022/09/03 02:52:37;;;;;;;1.55;0.63;;;;;;;14.59;76.23;100749.50;5213252;28;20483;-76
2022/09/03 02:55:08;;;;;;;1.85;0.70;;;;;;;14.66;75.92;100744.81;5212345;28;20265;-76
2022/09/03 02:57:38;;;;;;;1.25;0.60;;;;;;;14.61;76.69;100757.34;5209893;28;20040;-76
2022/09/03 03:00:09;;;;;;;1.67;0.60;;;;;;;14.41;78.07;100760.09;5195158;28;20661;-76
2022/09/03 03:02:40;;;;;;;1.33;0.60;;;;;;;14.37;77.63;100754.13;5211460;28;20029;-76
2022/09/03 03:05:23;;;;;;;2.03;0.77;;;;;;;14.52;77.02;100756.00;5194041;28;20021;-76
2022/09/03 03:07:54;;;;;;;1.77;0.70;;;;;;;14.36;76.99;100757.69;5212643;28;20082;-76
2022/09/03 03:10:25;;;;;;;3.72;0.70;;;;;;;14.46;77.10;100744.94;5209945;28;20029;-76
2022/09/03 03:12:55;;;;;;;1.85;0.70;;;;;;;14.25;78.70;100746.81;5196633;28;20402;-76
2022/09/03 03:15:27;;;;;;;3.28;0.90;;;;;;;14.27;78.43;100742.31;5206323;28;20025;-76
2022/09/03 03:17:57;;;;;;;1.98;0.70;;;;;;;14.16;77.43;100744.63;5205452;28;20032;-76
2022/09/03 03:20:28;;;;;;;2.47;0.80;;;;;;;14.17;78.21;100740.22;5191215;28;20276;-76
2022/09/03 03:23:02;;;;;;;1.17;0.50;;;;;;;14.23;76.81;100739.94;5211668;28;20037;-76
2022/09/03 03:25:34;;;;;;;2.20;0.77;;;;;;;14.21;77.49;100741.75;5213025;28;20132;-76
2022/09/03 03:28:05;;;;;;;0.88;0.57;;;;;;;14.27;76.93;100739.69;5210226;28;20418;-76
2022/09/03 03:30:38;;;;;;;3.38;0.80;;;;;;;14.11;78.63;100738.69;5211838;28;20029;-76
2022/09/03 03:33:09;;;;;;;1.58;0.70;;;;;;;14.18;77.05;100739.28;5211868;28;20443;-77
2022/09/03 03:35:41;;;;;;;1.08;0.70;;;;;;;14.32;75.74;100735.09;5211848;28;20036;-76
2022/09/03 03:38:11;;;;;;;4.10;0.70;;;;;;;14.27;76.88;100736.22;5210735;28;20460;-76
2022/09/03 03:40:42;;;;;;;1.52;0.70;;;;;;;14.18;77.81;100731.41;5211370;28;20037;-76
2022/09/03 03:43:12;;;;;;;1.73;0.80;;;;;;;14.06;77.64;100731.97;5211648;28;20037;-76
2022/09/03 03:45:42;;;;;;;1.75;0.63;;;;;;;14.00;78.63;100734.88;5193775;28;20543;-76
2022/09/03 03:48:12;;;;;;;1.20;0.73;;;;;;;13.89;78.93;100739.78;5203695;28;20100;-76
2022/09/03 03:50:43;;;;;;;1.10;0.70;;;;;;;13.81;78.77;100745.41;5208722;28;20123;-76
2022/09/03 03:53:13;;;;;;;1.50;0.85;;;;;;;14.13;77.51;100744.75;5211684;28;20025;-76
2022/09/03 03:55:57;;;;;;;3.97;0.80;;;;;;;13.87;78.84;100746.88;5210707;28;20109;-76
2022/09/03 03:58:30;;;;;;;2.47;0.90;;;;;;;13.76;78.47;100736.00;5204822;28;20029;-75
2022/09/03 04:01:06;;;;;;;4.03;0.90;;;;;;;13.86;78.40;100742.53;5213129;28;20036;-76
2022/09/03 04:03:36;;;;;;;2.03;0.55;;;;;;;13.91;77.97;100737.94;5210820;28;20056;-76
2022/09/03 04:06:08;;;;;;;4.05;0.90;;;;;;;13.97;77.53;100737.63;5193631;28;20017;-76
2022/09/03 04:08:40;;;;;;;4.85;1.00;;;;;;;14.03;76.78;100737.34;5210169;28;20184;-76
2022/09/03 04:11:14;;;;;;;5.65;0.88;;;;;;;13.92;77.17;100742.28;5212706;28;20387;-75
2022/09/03 04:13:46;;;;;;;1.40;0.80;;;;;;;13.91;77.46;100735.31;5211605;28;20521;-76
2022/09/03 04:16:18;;;;;;;1.77;0.73;;;;;;;14.02;77.67;100730.38;5210232;28;20039;-76
2022/09/03 04:18:49;;;;;;;1.90;0.73;;;;;;;14.09;77.05;100734.44;5201083;28;20479;-76
2022/09/03 04:21:23;;;;;;;1.67;0.68;;;;;;;14.18;77.33;100724.38;5194436;28;20037;-77
2022/09/03 04:23:54;;;;;;;2.35;0.80;;;;;;;14.25;77.20;100725.78;5208929;28;20091;-76
2022/09/03 04:26:30;;;;;;;3.70;1.10;;;;;;;14.38;76.32;100726.03;5212144;28;20446;-76
2022/09/03 04:29:05;;;;;;;2.17;0.90;;;;;;;14.40;76.50;100717.16;5205044;28;21000;-77
2022/09/03 04:31:37;;;;;;;3.78;0.80;;;;;;;14.36;76.53;100720.00;5212278;28;20035;-76
2022/09/03 04:34:09;;;;;;;3.58;0.80;;;;;;;14.39;76.59;100709.34;5211112;28;20025;-76
2022/09/03 04:36:40;;;;;;;2.05;0.68;;;;;;;14.32;76.75;100719.31;5191427;28;20407;-76
2022/09/03 04:39:11;;;;;;;3.03;0.90;;;;;;;14.34;76.99;100717.47;5193101;28;20029;-76
2022/09/03 04:41:41;;;;;;;2.65;0.90;;;;;;;14.27;77.13;100721.28;5211499;28;20108;-76
2022/09/03 04:44:12;;;;;;;3.55;1.10;;;;;;;14.27;78.29;100725.72;5210762;28;20057;-77
2022/09/03 04:46:42;;;;;;;3.40;0.77;;;;;;;14.22;77.70;100725.09;5189672;28;20029;-77
2022/09/03 04:49:13;;;;;;;2.13;0.80;;;;;;;14.28;76.91;100720.38;5201157;28;20511;-77
2022/09/03 04:51:44;;;;;;;2.50;0.65;;;;;;;14.22;79.13;100725.09;5189871;28;20029;-77
2022/09/03 04:54:15;;;;;;;1.20;0.70;;;;;;;14.45;77.34;100722.19;5192969;28;20079;-77
2022/09/03 04:56:46;;;;;;;1.80;0.85;;;;;;;14.21;77.78;100734.75;5210717;28;20940;-77
2022/09/03 04:59:16;;;;;;;3.42;0.95;;;;;;;14.35;77.60;100734.94;5192123;28;20124;-77
2022/09/03 05:01:46;;;;;;;2.63;1.00;;;;;;;14.69;77.13;100716.56;5212757;28;20048;-77
2022/09/03 05:04:18;;;;;;;2.97;0.90;;;;;;;14.51;78.27;100724.50;5209963;28;20300;-78
2022/09/03 05:06:49;;;;;;;3.25;0.90;;;;;;;14.79;76.46;100722.22;5189463;28;20049;-76
2022/09/03 05:09:20;;;;;;;2.45;0.80;;;;;;;14.80;77.01;100723.94;5194361;28;20060;-77
2022/09/03 05:11:51;;;;;;;3.08;0.82;;;;;;;14.95;76.77;100722.22;5191427;28;20029;-77
2022/09/03 05:14:22;;;;;;;2.50;1.08;;;;;;;14.73;78.27;100720.75;5195122;28;20043;-77
2022/09/03 05:16:52;;;;;;;1.00;0.60;;;;;;;14.93;77.94;100721.44;5187756;28;20041;-77
2022/09/03 05:19:23;;;;;;;1.17;0.80;;;;;;;15.15;77.52;100729.94;5184767;28;20411;-77
2022/09/03 05:21:53;;;;;;;2.67;1.02;;;;;;;15.11;77.90;100723.13;5182049;28;20056;-78
2022/09/03 05:24:24;;;;;;;1.52;0.80;;;;;;;15.43;77.20;100722.34;5194352;28;20017;-77
2022/09/03 05:26:54;;;;;;;1.58;0.82;;;;;;;16.12;73.53;100715.88;5189309;28;20356;-78
2022/09/03 05:29:24;;;;;;;1.80;0.88;;;;;;;15.91;73.79;100711.78;5211316;28;20390;-78
2022/09/03 05:31:55;;;;;;;2.80;1.00;;;;;;;15.71;74.45;100712.00;5207899;28;20029;-77
2022/09/03 05:34:25;;;;;;;4.13;0.90;;;;;;;15.65;75.11;100716.75;5190639;28;20030;-78
2022/09/03 05:36:57;;;;;;;2.42;0.88;;;;;;;15.69;74.40;100719.16;5200766;28;20156;-77
2022/09/03 05:39:27;;;;;;;1.65;0.80;;;;;;;15.66;74.04;100723.72;5211821;28;20025;-77
2022/09/03 05:41:58;;;;;;;1.50;0.80;;;;;;;15.75;74.58;100715.34;5208505;28;20025;-77
2022/09/03 05:44:29;;;;;;;4.25;1.10;;;;;;;15.78;74.30;100717.81;5212474;28;20632;-77
2022/09/03 05:46:59;;;;;;;1.90;0.95;;;;;;;15.99;73.37;100724.53;5204629;28;20026;-77
2022/09/03 05:49:30;;;;;;;2.25;0.70;;;;;;;15.85;74.51;100722.66;5200979;28;20099;-77
2022/09/03 05:52:02;;;;;;;2.65;0.90;;;;;;;16.03;74.50;100721.66;5199464;28;20029;-78
2022/09/03 05:54:32;;;;;;;2.17;0.80;;;;;;;16.07;73.98;100717.91;5210983;28;20126;-77
2022/09/03 05:57:03;;;;;;;3.08;0.82;;;;;;;16.15;73.74;100720.97;5207254;28;20045;-77
2022/09/03 05:59:33;;;;;;;2.55;1.00;;;;;;;16.29;72.83;100721.06;5210763;28;20035;-77
2022/09/03 06:02:04;;;;;;;1.50;0.75;;;;;;;16.42;72.94;100732.63;5208190;28;20185;-77
2022/09/03 06:04:34;;;;;;;1.00;0.60;;;;;;;16.34;73.16;100731.31;5210193;28;20053;-75
2022/09/03 06:07:04;;;;;;;2.90;0.80;;;;;;;16.48;72.48;100721.75;5207308;28;20029;-77
2022/09/03 06:09:35;;;;;;;2.83;0.80;;;;;;;16.59;71.62;100726.41;5210225;28;20017;-76
2022/09/03 06:12:05;;;;;;;2.83;0.80;;;;;;;16.40;71.78;100723.94;5207673;28;20021;-77
2022/09/03 06:14:35;;;;;;;2.15;0.90;;;;;;;16.44;72.74;100728.13;5191738;28;20292;-77
2022/09/03 06:17:10;;;;;;;2.50;0.80;;;;;;;16.52;73.18;100723.25;5206470;28;20039;-77
2022/09/03 06:19:40;;;;;;;2.30;1.00;;;;;;;16.59;72.21;100729.03;5205375;28;20379;-77
2022/09/03 06:22:11;;;;;;;3.53;0.90;;;;;;;16.59;72.03;100727.22;5189466;28;20029;-77
2022/09/03 06:24:41;;;;;;;2.53;0.88;;;;;;;16.68;71.76;100716.16;5213430;28;20028;-77
2022/09/03 06:27:11;;;;;;;3.15;1.17;;;;;;;16.80;72.12;100728.66;5212479;28;20060;-77
2022/09/03 06:29:43;;;;;;;2.17;0.98;;;;;;;16.93;71.31;100727.81;5188446;28;20345;-77
2022/09/03 06:32:14;;;;;;;2.35;1.10;;;;;;;16.95;70.77;100733.03;5193183;28;20030;-77
2022/09/03 06:34:44;;;;;;;4.57;1.10;;;;;;;17.03;70.62;100726.34;5211067;28;20502;-77
2022/09/03 06:37:14;;;;;;;4.30;1.00;;;;;;;16.99;71.00;100721.34;5193059;28;20462;-76
2022/09/03 06:39:45;;;;;;;3.00;0.95;;;;;;;17.16;70.76;100723.81;5210801;28;20057;-77
2022/09/03 06:42:16;;;;;;;3.03;1.27;;;;;;;17.17;70.35;100730.81;5209849;28;20033;-77
2022/09/03 06:44:47;;;;;;;2.10;1.00;;;;;;;17.19;70.73;100732.44;5211217;28;21080;-77
2022/09/03 06:47:17;;;;;;;4.13;1.20;;;;;;;17.57;70.21;100730.97;5205802;28;20029;-78
2022/09/03 06:49:48;;;;;;;5.55;1.10;;;;;;;19.08;65.14;100733.38;5206083;28;20090;-77
2022/09/03 06:52:18;;;;;;;2.22;0.85;;;;;;;20.13;62.11;100721.47;5194139;28;20017;-78
2022/09/03 06:54:48;;;;;;;5.13;0.90;;;;;;;20.04;62.11;100721.28;5211147;28;20123;-78
2022/09/03 06:57:19;;;;;;;3.90;1.00;;;;;;;19.07;64.22;100727.22;5208493;28;20021;-77
2022/09/03 06:59:49;;;;;;;3.20;0.88;;;;;;;18.52;66.47;100727.50;5210219;28;20090;-78
2022/09/03 07:02:21;;;;;;;2.28;0.88;;;;;;;20.32;62.79;100723.63;5213374;28;20244;-77
2022/09/03 07:04:52;;;;;;;3.15;0.80;;;;;;;21.64;58.69;100717.81;5228716;22;20046;-73
2022/09/03 07:07:22;;;;;;;1.92;0.95;;;;;;;21.63;58.39;100713.47;5204223;28;20104;-73
2022/09/03 07:09:52;;;;;;;1.95;0.70;;;;;;;22.01;56.57;100715.72;5210996;28;20025;-73
2022/09/03 07:12:22;;;;;;;3.25;1.17;;;;;;;21.94;57.54;100722.53;5211936;28;20033;-73
2022/09/03 07:14:53;;;;;;;2.22;1.00;;;;;;;22.38;56.10;100725.09;5210252;28;20249;-73
2022/09/03 07:17:23;;;;;;;4.17;0.90;;;;;;;22.57;56.40;100726.16;5206013;28;20103;-73
2022/09/03 07:19:53;;;;;;;2.65;0.88;;;;;;;22.90;54.32;100723.34;5203667;28;20282;-71
2022/09/03 07:22:24;;;;;;;3.42;0.90;;;;;;;22.86;55.69;100721.94;5209969;28;20471;-73
2022/09/03 07:24:54;;;;;;;3.38;0.82;;;;;;;24.08;52.88;100715.59;5213405;28;20028;-73
2022/09/03 07:27:25;;;;;;;2.65;0.90;;;;;;;24.44;52.60;100716.81;5208204;28;20064;-73
2022/09/03 07:29:55;;;;;;;3.80;1.17;;;;;;;23.60;53.80;100725.25;5201356;28;20029;-73
2022/09/03 07:32:26;;;;;;;2.83;1.02;;;;;;;24.31;53.15;100717.09;5208803;28;20033;-73
2022/09/03 07:34:56;;;;;;;5.45;0.90;;;;;;;25.12;51.83;100706.88;5204848;28;20029;-73
2022/09/03 07:37:27;;;;;;;2.65;1.00;;;;;;;24.03;52.06;100731.22;5212125;28;20040;-73
2022/09/03 07:39:57;;;;;;;3.88;0.98;;;;;;;24.32;52.52;100724.13;5208177;28;20467;-74
2022/09/03 07:42:29;;;;;;;5.97;1.20;;;;;;;24.91;51.57;100724.88;5212528;28;20104;-73
2022/09/03 07:45:00;;;;;;;5.72;0.90;;;;;;;24.70;52.17;100712.66;5211290;28;20032;-73
2022/09/03 07:47:31;;;;;;;1.70;0.90;;;;;;;24.42;51.65;100714.28;5206250;28;20040;-73
2022/09/03 07:50:03;;;;;;;1.77;0.80;;;;;;;24.32;52.07;100710.75;5203079;28;20041;-73
2022/09/03 07:52:33;;;;;;;6.03;1.02;;;;;;;24.91;52.04;100706.16;5207673;28;20449;-73
2022/09/03 07:55:04;;;;;;;3.25;0.90;;;;;;;25.24;51.35;100701.25;5192348;28;20032;-73
2022/09/03 07:57:36;;;;;;;1.45;0.80;;;;;;;25.00;51.31;100702.66;5210773;28;20044;-73
2022/09/03 08:00:07;;;;;;;2.47;0.90;;;;;;;25.85;50.23;100698.94;5199781;28;20037;-73
2022/09/03 08:02:38;;;;;;;3.90;0.90;;;;;;;26.20;50.01;100710.56;5208528;28;20108;-73
2022/09/03 08:05:08;;;;;;;3.60;1.10;;;;;;;25.99;49.60;100707.31;5192636;28;20166;-74
2022/09/03 08:07:38;;;;;;;1.90;0.80;;;;;;;25.62;50.00;100703.78;5209654;28;20275;-73
2022/09/03 08:10:09;;;;;;;3.22;0.90;;;;;;;25.29;50.21;100717.69;5207957;28;20287;-74
2022/09/03 08:12:39;;;;;;;2.33;0.90;;;;;;;25.80;50.48;100711.91;5209080;28;20025;-73
2022/09/03 08:15:10;;;;;;;4.53;1.10;;;;;;;26.38;50.02;100713.31;5209589;28;20045;-73
2022/09/03 08:17:43;;;;;;;2.78;0.80;;;;;;;26.92;48.05;100709.50;5202508;28;20036;-73
2022/09/03 08:20:13;;;;;;;4.90;0.80;;;;;;;27.43;47.37;100709.56;5206514;28;20025;-74
2022/09/03 08:22:43;;;;;;;2.65;0.80;;;;;;;26.79;48.21;100714.41;5209768;28;20055;-73
2022/09/03 08:25:14;;;;;;;3.20;1.00;;;;;;;26.22;49.26;100713.97;5210600;28;20100;-71
2022/09/03 08:27:44;;;;;;;8.32;0.90;;;;;;;26.71;48.74;100715.34;5208141;28;20029;-73
2022/09/03 08:30:16;;;;;;;2.77;0.90;;;;;;;26.48;47.59;100714.94;5198935;28;20030;-71
2022/09/03 08:32:46;;;;;;;2.78;0.90;;;;;;;27.23;47.49;100701.88;5207374;28;20797;-71
2022/09/03 08:35:17;;;;;;;5.60;1.00;;;;;;;27.71;47.04;100703.06;5210555;28;20021;-71
2022/09/03 08:37:52;;;;;;;3.10;0.80;;;;;;;27.56;47.02;100703.75;5207839;28;20029;-71
2022/09/03 08:40:23;;;;;;;5.80;0.90;;;;;;;27.09;47.54;100713.16;5210253;28;20119;-71
2022/09/03 08:43:17;;;;;;;5.85;1.15;;;;;;;27.45;46.74;100694.13;5207682;28;20637;-73
2022/09/03 08:45:48;;;;;;;2.55;0.82;;;;;;;27.32;46.24;100703.63;5209828;28;20104;-73
2022/09/03 08:48:22;;;;;;;3.78;0.95;;;;;;;26.33;46.64;100716.44;5181927;28;20556;-74
2022/09/03 08:50:58;;;;;;;10.57;1.00;;;;;;;27.44;45.51;100705.88;5202808;28;20024;-74
2022/09/03 08:53:54;;;;;;;6.03;0.80;;;;;;;27.09;45.78;100705.94;5200471;28;20623;-72
2022/09/03 08:56:28;;;;;;;3.83;0.80;;;;;;;26.69;46.36;100707.44;5201903;28;20037;-73
2022/09/03 08:59:00;;;;;;;2.95;0.75;;;;;;;26.43;45.35;100721.72;5199651;28;20059;-73
2022/09/03 09:01:41;;;;;;;2.47;0.80;;;;;;;25.66;46.20;100720.41;5184713;28;20116;-73
2022/09/03 09:04:31;;;;;;;4.10;0.88;;;;;;;26.63;45.80;100709.88;5200322;28;20446;-73
2022/09/03 09:07:19;;;;;;;4.07;0.73;;;;;;;25.66;46.18;100707.03;5203879;28;20025;-73
2022/09/03 09:10:10;;;;;;;3.08;1.20;;;;;;;26.44;45.01;100710.00;5207829;28;20100;-73
2022/09/03 09:13:00;;;;;;;5.75;0.77;;;;;;;26.45;44.46;100714.38;5204965;28;20022;-73
2022/09/03 09:15:48;;;;;;;2.95;0.80;;;;;;;25.74;44.50;100713.34;5205775;28;20037;-73
2022/09/03 09:18:56;;;;;;;3.60;0.80;;;;;;;26.08;45.06;100711.78;5199983;28;20048;-73
2022/09/03 09:21:31;;;;;;;4.07;0.77;;;;;;;24.89;45.78;100706.31;5200108;28;20033;-73
2022/09/03 09:24:10;;;;;;;2.55;0.80;;;;;;;25.00;46.61;100706.16;5184420;28;20423;-73
2022/09/03 09:26:41;;;;;;;6.07;0.90;;;;;;;24.80;47.13;100707.16;5201620;28;20041;-72
2022/09/03 09:29:12;;;;;;;4.00;0.77;;;;;;;24.21;47.54;100705.53;5201893;28;20032;-73
2022/09/03 09:31:43;;;;;;;3.88;0.80;;;;;;;24.71;47.53;100699.13;5182329;28;20445;-73
2022/09/03 09:34:14;;;;;;;2.45;0.80;;;;;;;24.43;47.40;100713.31;5204643;28;20025;-72
2022/09/03 09:36:51;;;;;;;4.25;0.70;;;;;;;24.31;48.75;100698.38;5198723;28;20046;-72
2022/09/03 09:39:22;;;;;;;2.13;0.80;;;;;;;23.61;48.42;100707.41;5201810;28;20071;-73
2022/09/03 09:42:07;;;;;;;2.53;1.05;;;;;;;23.58;48.84;100705.00;5202910;28;20033;-73
2022/09/03 09:44:40;;;;;;;4.82;0.68;;;;;;;23.23;48.02;100697.34;5202450;28;20084;-72
2022/09/03 09:47:30;;;;;;;3.28;0.75;;;;;;;23.49;49.01;100701.31;5180122;28;20116;-72
2022/09/03 09:50:02;;;;;;;3.42;0.70;;;;;;;23.25;49.26;100703.44;5182162;28;20055;-72
2022/09/03 09:52:32;;;;;;;5.30;0.80;;;;;;;23.44;47.90;100700.00;5204924;28;20041;-72
2022/09/03 09:55:14;;;;;;;0.88;0.60;;;;;;;22.79;48.48;100710.06;5205717;28;20021;-73
2022/09/03 09:57:44;;;;;;;4.40;0.88;;;;;;;22.51;48.84;100717.81;5202762;28;20043;-73
2022/09/03 10:00:18;;;;;;;0.82;0.50;;;;;;;22.96;48.54;100712.16;5198915;28;20013;-72
2022/09/03 10:02:53;;;;;;;1.83;0.70;;;;;;;23.06;49.09;100692.59;5208883;28;20112;-72
2022/09/03 10:05:26;;;;;;;1.52;0.75;;;;;;;22.99;49.08;100686.09;5206227;28;20024;-73
2022/09/03 10:07:59;;;;;;;1.10;0.68;;;;;;;23.29;49.12;100691.53;5198579;28;20449;-73
2022/09/03 10:10:36;;;;;;;2.53;0.80;;;;;;;23.31;48.55;100691.38;5202823;28;21183;-72
2022/09/03 10:13:17;;;;;;;3.53;0.70;;;;;;;23.23;49.72;100694.69;5208915;28;20049;-72
2022/09/03 10:16:15;;;;;;;3.30;0.90;;;;;;;22.85;49.34;100696.25;5207711;28;20025;-73
2022/09/03 10:18:59;;;;;;;6.43;1.05;;;;;;;23.02;49.14;100688.50;5203102;28;20026;-73
2022/09/03 10:21:35;;;;;;;2.95;0.90;;;;;;;23.20;49.04;100684.28;5200169;28;20263;-72
2022/09/03 10:24:20;;;;;;;3.08;0.52;;;;;;;23.08;48.63;100679.13;5203625;28;20029;-72
2022/09/03 10:26:50;;;;;;;3.28;0.93;;;;;;;22.75;48.63;100693.50;5200628;28;20217;-72
2022/09/03 10:29:28;;;;;;;4.15;0.70;;;;;;;23.06;49.09;100671.25;5202805;28;20044;-73
2022/09/03 10:32:21;;;;;;;3.30;0.80;;;;;;;22.94;50.64;100685.66;5184743;28;20068;-72
2022/09/03 10:35:28;;;;;;;3.47;0.80;;;;;;;22.75;49.25;100680.19;5202117;28;20044;-73
2022/09/03 10:38:05;;;;;;;;;;;;;;;22.91;49.49;100677.91;5201259;28;20033;-73
2022/09/03 10:40:53;;;;;;;6.55;0.63;;;;;;;22.97;49.69;100669.38;5204108;28;19913;-72
2022/09/03 10:43:31;;;;;;;1.13;0.60;;;;;;;22.86;49.33;100673.94;5189699;28;20043;-73
2022/09/03 10:46:09;;;;;;;2.80;0.75;;;;;;;22.51;49.36;100677.84;5204266;28;20096;-72
2022/09/03 10:49:08;;;;;;;1.98;0.60;;;;;;;22.84;50.29;100676.72;5204476;28;20589;-72
2022/09/03 10:51:41;;;;;;;3.42;0.90;;;;;;;22.61;49.59;100670.81;5204609;28;20049;-72
2022/09/03 10:54:15;;;;;;;2.60;0.80;;;;;;;22.67;49.63;100667.63;5207241;28;20458;-73
2022/09/03 10:57:26;;;;;;;1.85;0.70;;;;;;;22.90;49.65;100657.56;5202915;28;20132;-71
2022/09/03 11:00:07;;;;;;;4.28;0.68;;;;;;;23.02;49.58;100655.66;5186248;28;20106;-72
2022/09/03 11:02:50;;;;;;;3.28;0.60;;;;;;;22.94;49.49;100650.13;5202251;28;20029;-72
2022/09/03 11:05:28;;;;;;;2.03;0.60;;;;;;;23.09;49.80;100655.00;5203938;28;20032;-71
2022/09/03 11:08:15;;;;;;;2.58;0.82;;;;;;;23.11;50.31;100645.09;5202000;28;20037;-71
2022/09/03 11:10:53;;;;;;;4.68;0.88;;;;;;;23.18;49.75;100637.41;5184515;28;20083;-71
2022/09/03 11:13:30;;;;;;;2.38;0.93;;;;;;;23.36;50.62;100636.63;5204441;28;20410;-74
2022/09/03 11:16:29;;;;;;;1.40;0.90;;;;;;;23.27;50.50;100645.47;5201392;28;20030;-74
2022/09/03 11:19:04;;;;;;;1.13;0.70;;;;;;;23.27;49.69;100642.78;5200518;28;20525;-74
2022/09/03 11:21:37;;;;;;;2.25;0.60;;;;;;;23.10;49.08;100630.03;5202369;28;20041;-73
2022/09/03 11:24:21;;;;;;;2.88;0.80;;;;;;;23.21;50.16;100626.47;5203723;28;20029;-73
2022/09/03 11:27:01;;;;;;;1.75;0.60;;;;;;;23.24;49.57;100627.06;5204357;28;20115;-73
2022/09/03 11:29:48;;;;;;;1.55;0.50;;;;;;;23.32;48.94;100629.88;5197915;28;20076;-73
2022/09/03 11:32:24;;;;;;;1.00;0.60;;;;;;;23.31;49.93;100643.34;5203792;28;20033;-73
2022/09/03 11:34:55;;;;;;;2.67;0.80;;;;;;;23.27;49.42;100632.13;5204938;28;20060;-73
2022/09/03 11:37:29;;;;;;;3.88;0.90;;;;;;;23.26;49.10;100625.09;5203565;28;20044;-73
2022/09/03 11:40:17;;;;;;;1.77;0.68;;;;;;;23.23;49.93;100635.19;5203998;28;20119;-73
2022/09/03 11:42:48;;;;;;;4.20;0.70;;;;;;;23.32;49.30;100640.56;5204647;28;20082;-73
2022/09/03 11:45:34;;;;;;;1.67;0.60;;;;;;;23.47;49.86;100622.34;5203938;28;20037;-73
2022/09/03 11:48:32;;;;;;;1.30;0.70;;;;;;;23.39;49.05;100632.88;5201798;28;20036;-73
2022/09/03 11:51:03;;;;;;;1.00;0.60;;;;;;;23.42;49.73;100630.78;5201297;28;20029;-73
2022/09/03 11:53:35;;;;;;;2.97;0.68;;;;;;;23.41;49.47;100629.09;5204015;28;20029;-73
2022/09/03 11:56:05;;;;;;;1.20;0.50;;;;;;;23.22;49.01;100618.31;5206308;28;20048;-73
2022/09/03 11:58:38;;;;;;;1.27;0.70;;;;;;;23.37;49.53;100616.97;5206661;28;20029;-73
2022/09/03 12:01:14;;;;;;;1.27;0.70;;;;;;;23.69;50.14;100616.84;5207460;28;20277;-72
2022/09/03 12:03:52;;;;;;;2.88;0.70;;;;;;;23.33;48.95;100623.56;5205392;28;20057;-73
2022/09/03 12:06:47;;;;;;;2.10;0.57;;;;;;;23.01;48.73;100606.81;5209872;28;20040;-73